Arcadia, IN (46030)

12:17 PM EST on February 10, 2016 (GMT -0500)
Sumara | | Change Station
CLOSE
Current Station
Personal Weather Station
Location: Cicero, IN
Elevation: 886 ft
Nearby Weather Stations

Elev 886 ft 40.13 °N, 86.09 °W | Updated 4 seconds ago

Partly Cloudy
Partly Cloudy
14.5 °F
Feels Like 5 °F
N
6.7
Wind Variable Wind from West
Gusts 7.4 mph

Today
High -- | Low -- °F
--% Chance of Precip.
Yesterday
High -- | Low -- °F
Precip. -- in
Pressure 30.04 in
Visibility 10.0 miles
Clouds Scattered Clouds 1900 ft
Scattered Clouds 3300 ft
Windchill 5 °F
Dew Point -1 °F
Humidity 50%
Rainfall 0.00 in
Snow Depth Not available.
7:43 AM 6:13 PM
Waxing Crescent, 6% visible
METAR KTYQ 101655Z AUTO 28011G18KT 10SM SCT019 SCT033 M11/M15 A3004 RMK AO2 T11081153
Pressure 30.04 in
Visibility 10.0 miles
Clouds Scattered Clouds 1900 ft
Scattered Clouds 3300 ft
Windchill 5 °F
Dew Point -1 °F
Humidity 50%
Rainfall 0.00 in
Snow Depth Not available.
7:43 AM 6:13 PM
Waxing Crescent, 6% visible
METAR KTYQ 101655Z AUTO 28011G18KT 10SM SCT019 SCT033 M11/M15 A3004 RMK AO2 T11081153

10-Day Weather Forecast

Almanac

Astronomy

Feb. 10, 2016 Rise Set
Actual Time
Civil Twilight
Nautical Twilight
Astronomical Twilight
Moon
Length of Visible Light
Length of Day
Tomorrow will be .
, % of the Moon is Illuminated

Today's Extremes

State Highs State Lows

Community

WunderPhotos

Upload Photos

1,891,893 photos uploaded!

WunderBlog® & News

Nearby

Air Quality

  Air Quality AQ Index Pollutant
Not available.

Snow Depth

Station Depth Elevation

Earthquake Activity

City Distance Mag. Time & Date
Minimum magnitude displayed is 2.5.

Coastal Water Temperatures

Place Temperature

Stations

Nearby Weather Stations

Station Location Temp. Windchill Dew Point Humidity Wind Precip. Elev Updated Type
                   

Watches & Warnings

There are currently no watches in effect.